Time;durP1;ratioP1;P1;durP2;ratioP2;P2;SDS_P1;SDS_P2;PMS_P1;PMS_P2;Temp;Humidity;BMP_temperature;BMP_pressure;BME280_temperature;BME280_humidity;BME280_pressure;Samples;Min_cycle;Max_cycle;Signal;HPM_P1;HPM_P2
2024/01/16 00:00:34;;;;;;;30.33;11.85;;;;;;;-0.04;100.00;100839.56;5093895;27;20064;-74
2024/01/16 00:03:00;;;;;;;29.80;9.77;;;;;;;-0.08;100.00;100845.75;5092253;27;20034;-74
2024/01/16 00:05:26;;;;;;;29.67;10.18;;;;;;;-0.07;100.00;100844.84;5095642;27;20039;-74
2024/01/16 00:07:51;;;;;;;26.13;11.80;;;;;;;-0.03;100.00;100845.66;5097907;27;20031;-74
2024/01/16 00:10:17;;;;;;;29.58;11.65;;;;;;;-0.02;100.00;100857.88;5091209;27;20888;-74
2024/01/16 00:12:42;;;;;;;27.75;11.68;;;;;;;-0.05;100.00;100845.72;5073252;27;20035;-74
2024/01/16 00:15:08;;;;;;;30.40;10.15;;;;;;;-0.09;100.00;100848.41;5078154;27;20026;-74
2024/01/16 00:17:34;;;;;;;34.78;10.25;;;;;;;0.02;100.00;100837.72;5093881;27;20130;-74
2024/01/16 00:20:00;;;;;;;24.58;9.65;;;;;;;-0.04;100.00;100843.94;5097232;27;20044;-74
2024/01/16 00:22:27;;;;;;;26.65;8.45;;;;;;;-0.12;100.00;100841.47;5091403;27;20036;-73
2024/01/16 00:24:52;;;;;;;27.70;8.57;;;;;;;-0.14;100.00;100839.78;5094459;27;20369;-74
2024/01/16 00:27:18;;;;;;;22.10;8.05;;;;;;;-0.16;100.00;100838.94;5072833;27;20044;-74
2024/01/16 00:29:43;;;;;;;24.48;7.32;;;;;;;-0.20;100.00;100827.66;5096808;27;20036;-73
2024/01/16 00:32:09;;;;;;;32.10;7.95;;;;;;;-0.20;100.00;100829.38;5088927;27;23143;-74
2024/01/16 00:34:34;;;;;;;22.77;6.03;;;;;;;-0.23;100.00;100832.94;5081098;27;20098;-74
2024/01/16 00:37:00;;;;;;;19.17;6.22;;;;;;;-0.24;100.00;100833.00;5096292;27;20101;-74
2024/01/16 00:39:25;;;;;;;23.45;6.25;;;;;;;-0.28;100.00;100834.78;5078940;27;20057;-74
2024/01/16 00:41:51;;;;;;;16.63;5.53;;;;;;;0.99;100.00;100829.41;5073865;28;20044;-74
2024/01/16 00:44:17;;;;;;;22.58;6.32;;;;;;;1.41;100.00;100817.00;5059258;28;20036;-74
2024/01/16 00:46:42;;;;;;;18.60;6.38;;;;;;;1.52;100.00;100806.19;5075969;28;20032;-74
2024/01/16 00:49:08;;;;;;;25.42;6.57;;;;;;;1.57;100.00;100800.81;5068826;28;20044;-73
2024/01/16 00:51:33;;;;;;;23.45;6.57;;;;;;;1.65;100.00;100801.44;5065689;28;20045;-74
2024/01/16 00:53:59;;;;;;;20.75;6.03;;;;;;;1.76;100.00;100808.16;5063463;28;20029;-74
2024/01/16 00:56:27;;;;;;;16.67;6.72;;;;;;;1.83;100.00;100800.09;5074343;27;20024;-74
2024/01/16 00:58:53;;;;;;;17.85;6.43;;;;;;;1.71;100.00;100811.81;5058522;28;20135;-74
2024/01/16 01:01:20;;;;;;;26.00;7.15;;;;;;;1.87;100.00;100807.84;5074600;28;20036;-74
2024/01/16 01:03:45;;;;;;;15.80;7.55;;;;;;;1.90;100.00;100807.75;5075871;27;20368;-74
2024/01/16 01:06:11;;;;;;;20.60;6.63;;;;;;;1.97;100.00;100818.97;5075606;28;20039;-74
2024/01/16 01:08:37;;;;;;;21.73;6.57;;;;;;;2.00;100.00;100817.09;5072000;28;20037;-74
2024/01/16 01:11:03;;;;;;;23.40;7.18;;;;;;;2.05;100.00;100815.19;5074626;28;20032;-73
2024/01/16 01:13:28;;;;;;;31.00;7.07;;;;;;;2.08;100.00;100819.53;5074789;28;20048;-74
2024/01/16 01:15:54;;;;;;;18.77;7.15;;;;;;;2.28;100.00;100821.56;5068791;28;20041;-74
2024/01/16 01:18:19;;;;;;;23.15;7.60;;;;;;;2.26;100.00;100824.25;5072881;27;20044;-74
2024/01/16 01:20:45;;;;;;;18.80;7.57;;;;;;;2.25;100.00;100824.28;5075561;27;20154;-74
2024/01/16 01:23:11;;;;;;;16.02;6.65;;;;;;;2.21;100.00;100826.16;5070624;28;20036;-74
2024/01/16 01:25:36;;;;;;;24.17;7.22;;;;;;;2.27;100.00;100817.22;5074887;28;20043;-74
2024/01/16 01:28:02;;;;;;;20.77;7.07;;;;;;;2.11;100.00;100824.72;5064812;28;20150;-73
2024/01/16 01:30:27;;;;;;;14.27;5.82;;;;;;;2.19;100.00;100816.56;5080427;28;20032;-74
2024/01/16 01:32:53;;;;;;;20.70;5.60;;;;;;;2.05;100.00;100809.94;5070480;28;20051;-74
2024/01/16 01:35:21;;;;;;;20.85;7.18;;;;;;;2.19;100.00;100816.56;5070263;28;20037;-74
2024/01/16 01:37:47;;;;;;;22.05;7.40;;;;;;;2.02;100.00;100810.03;5070932;28;21067;-73
2024/01/16 01:40:14;;;;;;;23.92;7.55;;;;;;;2.10;100.00;100809.81;5080200;27;20046;-74
2024/01/16 01:42:41;;;;;;;26.13;7.88;;;;;;;1.63;100.00;100809.38;5093170;27;20032;-74
2024/01/16 01:45:08;;;;;;;23.05;8.05;;;;;;;1.84;100.00;100809.69;5096444;27;20036;-74
2024/01/16 01:47:33;;;;;;;18.65;7.15;;;;;;;2.09;100.00;100810.72;5068313;27;20032;-74
2024/01/16 01:49:59;;;;;;;26.73;8.45;;;;;;;1.89;100.00;100810.44;5076043;27;20766;-73
2024/01/16 01:52:24;;;;;;;22.05;9.10;;;;;;;1.83;100.00;100810.59;5079499;27;20062;-73
2024/01/16 01:54:51;;;;;;;22.88;7.75;;;;;;;1.72;100.00;100819.66;5084291;27;20916;-74
2024/01/16 01:57:17;;;;;;;25.48;8.50;;;;;;;1.84;100.00;100815.81;5086843;27;20138;-74
2024/01/16 01:59:43;;;;;;;23.17;8.32;;;;;;;1.80;100.00;100812.41;5088849;27;20078;-73
2024/01/16 02:02:11;;;;;;;28.95;9.70;;;;;;;1.71;100.00;100815.31;5065048;27;20031;-74
2024/01/16 02:04:38;;;;;;;31.67;10.25;;;;;;;1.97;100.00;100813.72;5080368;27;20028;-74
2024/01/16 02:07:04;;;;;;;26.55;10.05;;;;;;;1.87;100.00;100817.50;5084731;27;20161;-74
2024/01/16 02:09:30;;;;;;;29.33;10.27;;;;;;;1.76;100.00;100817.81;5079604;27;20051;-74
2024/01/16 02:11:55;;;;;;;27.30;10.05;;;;;;;1.78;100.00;100818.63;5061750;27;20079;-74
2024/01/16 02:14:21;;;;;;;24.23;9.57;;;;;;;1.92;100.00;100811.22;5077650;27;20039;-73
2024/01/16 02:16:47;;;;;;;27.27;10.07;;;;;;;1.87;100.00;100809.63;5090963;27;20908;-73
2024/01/16 02:19:12;;;;;;;28.40;10.07;;;;;;;1.86;100.00;100816.66;5090799;27;20027;-74
2024/01/16 02:21:51;;;;;;;22.27;10.80;;;;;;;1.88;100.00;100816.59;5093598;27;20066;-74
2024/01/16 02:24:18;;;;;;;32.78;11.02;;;;;;;1.67;100.00;100816.28;5082731;27;20028;-73
2024/01/16 02:26:44;;;;;;;28.58;11.23;;;;;;;1.75;100.00;100819.56;5089726;27;20046;-74
2024/01/16 02:29:09;;;;;;;38.85;12.82;;;;;;;1.77;100.00;100809.00;5067272;27;20503;-74
2024/01/16 02:31:35;;;;;;;44.28;13.65;;;;;;;1.94;100.00;100817.28;5091525;27;20044;-74
2024/01/16 02:34:01;;;;;;;28.42;12.68;;;;;;;1.87;100.00;100814.88;5091365;27;20737;-74
2024/01/16 02:36:29;;;;;;;33.63;14.15;;;;;;;1.90;100.00;100814.78;5090671;27;20040;-74
2024/01/16 02:38:55;;;;;;;32.28;13.55;;;;;;;2.01;100.00;100823.25;5090364;27;20868;-74
2024/01/16 02:41:21;;;;;;;34.72;15.35;;;;;;;1.87;100.00;100820.13;5088307;27;20111;-73
2024/01/16 02:43:46;;;;;;;40.97;16.60;;;;;;;2.02;100.00;100828.47;5085711;27;20058;-73
2024/01/16 02:46:12;;;;;;;35.75;17.27;;;;;;;2.17;100.00;100823.66;5064245;27;20868;-74
2024/01/16 02:48:38;;;;;;;41.85;17.10;;;;;;;2.19;100.00;100819.22;5087551;27;20084;-73
2024/01/16 02:51:04;;;;;;;51.20;19.13;;;;;;;2.25;100.00;100819.03;5091935;27;20526;-73
2024/01/16 02:53:33;;;;;;;40.05;18.13;;;;;;;2.21;100.00;100818.28;5067327;28;20052;-74
2024/01/16 02:55:58;;;;;;;42.53;18.48;;;;;;;2.32;100.00;100823.22;5093173;27;20067;-74
2024/01/16 02:58:27;;;;;;;39.85;18.73;;;;;;;2.45;100.00;100824.56;5089920;27;20031;-74
2024/01/16 03:00:53;;;;;;;45.10;17.67;;;;;;;2.47;100.00;100832.41;5095242;27;20046;-73
2024/01/16 03:03:20;;;;;;;42.15;18.38;;;;;;;2.48;100.00;100824.47;5066410;27;20030;-74
2024/01/16 03:05:46;;;;;;;44.03;18.10;;;;;;;2.64;100.00;100834.53;5084631;27;20109;-73
2024/01/16 03:08:12;;;;;;;38.22;17.13;;;;;;;2.69;100.00;100835.25;5086648;27;20144;-73
2024/01/16 03:10:37;;;;;;;46.38;16.63;;;;;;;2.74;100.00;100838.59;5082560;27;20098;-76
2024/01/16 03:13:03;;;;;;;36.05;16.38;;;;;;;2.63;100.00;100824.91;5085254;27;20685;-73
2024/01/16 03:15:30;;;;;;;41.55;18.50;;;;;;;2.77;100.00;100820.09;5090754;27;20825;-73
2024/01/16 03:18:02;;;;;;;48.92;19.80;;;;;;;2.68;100.00;100823.00;5052305;28;20040;-73
2024/01/16 03:20:28;;;;;;;43.42;18.45;;;;;;;2.58;100.00;100819.78;5095324;27;20124;-73
2024/01/16 03:22:54;;;;;;;35.17;16.80;;;;;;;2.52;100.00;100826.09;5071972;27;20044;-73
2024/01/16 03:25:21;;;;;;;47.35;16.50;;;;;;;2.66;100.00;100806.38;5078574;27;20097;-74
2024/01/16 03:27:46;;;;;;;33.83;16.83;;;;;;;2.54;100.00;100821.66;5091608;27;20028;-73
2024/01/16 03:30:12;;;;;;;33.03;14.05;;;;;;;2.36;100.00;100818.69;5085697;27;20576;-73
2024/01/16 03:32:38;;;;;;;41.03;14.88;;;;;;;2.54;100.00;100812.88;5095727;27;20591;-73
2024/01/16 03:35:05;;;;;;;33.70;14.85;;;;;;;2.54;100.00;100810.25;5085636;27;20051;-73
2024/01/16 03:37:31;;;;;;;37.53;15.20;;;;;;;2.58;100.00;100809.25;5077624;27;20028;-73
2024/01/16 03:39:57;;;;;;;30.50;13.85;;;;;;;2.55;100.00;100804.06;5086768;27;20114;-73
2024/01/16 03:42:23;;;;;;;29.50;12.85;;;;;;;2.46;100.00;100801.72;5064448;27;20034;-73
2024/01/16 03:44:49;;;;;;;38.28;12.98;;;;;;;2.53;100.00;100806.75;5096075;27;20040;-73
2024/01/16 03:47:15;;;;;;;28.27;14.02;;;;;;;2.50;100.00;100806.84;5097304;27;20488;-73
2024/01/16 03:49:40;;;;;;;41.63;14.23;;;;;;;2.59;100.00;100806.56;5096078;27;20036;-73
2024/01/16 03:52:06;;;;;;;31.40;14.02;;;;;;;2.52;100.00;100815.56;5091770;27;21799;-72
2024/01/16 03:54:32;;;;;;;39.88;15.52;;;;;;;2.31;100.00;100810.97;5070888;27;20807;-73
2024/01/16 03:56:57;;;;;;;35.13;16.25;;;;;;;2.47;100.00;100814.84;5091900;27;20799;-74
2024/01/16 03:59:23;;;;;;;37.35;15.68;;;;;;;2.54;100.00;100816.38;5084965;27;20358;-73
2024/01/16 04:01:49;;;;;;;34.45;14.98;;;;;;;2.46;100.00;100810.50;5091599;27;20153;-73
2024/01/16 04:04:15;;;;;;;35.70;15.27;;;;;;;2.46;100.00;100809.63;5060373;27;20067;-73
2024/01/16 04:06:41;;;;;;;34.65;15.65;;;;;;;2.62;100.00;100813.53;5101177;27;20522;-73
2024/01/16 04:09:08;;;;;;;36.72;13.18;;;;;;;2.68;100.00;100804.56;5080770;27;20036;-73
2024/01/16 04:11:34;;;;;;;33.28;14.13;;;;;;;2.51;100.00;100808.59;5099030;27;20123;-73
2024/01/16 04:13:59;;;;;;;34.85;13.20;;;;;;;2.65;100.00;100807.28;5100074;27;20046;-73
2024/01/16 04:16:25;;;;;;;36.55;13.40;;;;;;;2.60;100.00;100807.44;5097671;27;20104;-73
2024/01/16 04:18:50;;;;;;;33.50;12.05;;;;;;;2.38;100.00;100811.63;5073621;27;20032;-73
2024/01/16 04:21:16;;;;;;;26.38;11.88;;;;;;;2.55;100.00;100806.72;5090722;27;20446;-73
2024/01/16 04:23:42;;;;;;;28.52;10.90;;;;;;;2.49;100.00;100806.91;5097823;27;20043;-73
2024/01/16 04:26:07;;;;;;;22.98;10.70;;;;;;;2.39;100.00;100814.22;5075999;27;20184;-73
2024/01/16 04:28:33;;;;;;;29.42;11.15;;;;;;;2.37;100.00;100821.31;5099329;27;20046;-73
2024/01/16 04:31:01;;;;;;;33.72;10.65;;;;;;;2.56;100.00;100821.59;5078225;27;20024;-73
2024/01/16 04:33:27;;;;;;;20.65;9.80;;;;;;;2.54;100.00;100826.06;5094311;27;20046;-74
2024/01/16 04:35:52;;;;;;;21.00;10.02;;;;;;;2.35;100.00;100823.09;5073142;27;20639;-74
2024/01/16 04:38:18;;;;;;;30.35;12.15;;;;;;;2.49;100.00;100825.31;5078379;27;20074;-73
2024/01/16 04:40:43;;;;;;;23.83;10.57;;;;;;;2.59;100.00;100825.00;5087442;27;20039;-73
2024/01/16 04:43:09;;;;;;;25.75;11.30;;;;;;;2.71;100.00;100826.41;5094671;27;20117;-74
2024/01/16 04:45:34;;;;;;;34.35;12.70;;;;;;;2.70;100.00;100835.19;5091226;27;20047;-73
2024/01/16 04:48:00;;;;;;;29.63;13.70;;;;;;;2.80;100.00;100831.34;5097029;27;20453;-73
2024/01/16 04:50:31;;;;;;;26.25;13.00;;;;;;;2.66;100.00;100833.59;5078469;27;20478;-74
2024/01/16 04:52:59;;;;;;;31.55;13.50;;;;;;;2.54;100.00;100834.81;5053793;27;20047;-74
2024/01/16 04:55:25;;;;;;;32.65;14.10;;;;;;;2.72;100.00;100832.53;5088084;27;20165;-75
2024/01/16 04:57:50;;;;;;;33.75;15.07;;;;;;;2.70;100.00;100823.81;5067224;27;20044;-74
2024/01/16 05:00:16;;;;;;;34.42;15.98;;;;;;;2.70;100.00;100829.06;5093969;27;20036;-74
2024/01/16 05:02:42;;;;;;;39.58;17.65;;;;;;;0.95;100.00;100836.50;5093330;27;20036;-74
2024/01/16 05:05:08;;;;;;;36.28;17.02;;;;;;;0.68;100.00;100852.91;5077922;27;20232;-75
2024/01/16 05:07:35;;;;;;;39.60;16.58;;;;;;;0.51;100.00;100855.91;5097246;27;20031;-74
2024/01/16 05:10:02;;;;;;;45.45;17.88;;;;;;;0.39;100.00;100861.41;5093628;27;20109;-74
2024/01/16 05:12:27;;;;;;;44.10;18.90;;;;;;;0.40;100.00;100852.63;5074882;27;20886;-72
2024/01/16 05:14:53;;;;;;;37.67;18.02;;;;;;;0.38;100.00;100855.28;5069696;28;20029;-76
2024/01/16 05:17:20;;;;;;;41.97;18.92;;;;;;;0.33;100.00;100856.28;5086764;27;20020;-74
2024/01/16 05:19:45;;;;;;;43.45;20.25;;;;;;;0.24;100.00;100858.19;5073770;27;20120;-74
2024/01/16 05:22:11;;;;;;;47.33;20.48;;;;;;;0.28;100.00;100859.00;5072369;27;20109;-75
2024/01/16 05:24:36;;;;;;;48.60;21.35;;;;;;;0.35;100.00;100857.09;5097206;27;20882;-74
2024/01/16 05:27:04;;;;;;;48.33;20.65;;;;;;;0.34;100.00;100858.00;5076794;27;20032;-73
2024/01/16 05:29:30;;;;;;;47.35;20.23;;;;;;;0.37;100.00;100850.09;5097833;27;20123;-75
2024/01/16 05:31:57;;;;;;;34.53;17.75;;;;;;;0.33;100.00;100845.81;5093537;27;20048;-75
2024/01/16 05:34:22;;;;;;;33.58;18.02;;;;;;;0.31;100.00;100844.97;5080730;27;20060;-74
2024/01/16 05:36:48;;;;;;;35.13;16.77;;;;;;;0.32;100.00;100852.81;5093794;27;20035;-75
2024/01/16 05:39:13;;;;;;;34.40;15.05;;;;;;;0.33;100.00;100845.81;5095639;27;20027;-75
2024/01/16 05:41:39;;;;;;;35.80;16.27;;;;;;;0.30;100.00;100845.84;5094691;27;20618;-74
2024/01/16 05:44:05;;;;;;;34.88;16.17;;;;;;;0.31;100.00;100840.59;5095400;27;20462;-75
2024/01/16 05:46:33;;;;;;;26.17;14.23;;;;;;;0.27;100.00;100835.44;5095023;27;20877;-74
2024/01/16 05:48:59;;;;;;;28.42;12.80;;;;;;;0.26;100.00;100837.22;5095923;27;20044;-74
2024/01/16 05:51:27;;;;;;;23.40;10.13;;;;;;;0.25;100.00;100838.09;5092773;27;20032;-73
2024/01/16 05:53:53;;;;;;;27.35;10.57;;;;;;;0.33;100.00;100828.31;5061665;27;20177;-74
2024/01/16 05:56:18;;;;;;;23.20;8.75;;;;;;;0.25;100.00;100824.97;5091954;27;20132;-74
2024/01/16 05:58:44;;;;;;;19.48;7.95;;;;;;;0.33;100.00;100825.69;5094786;27;20036;-74
2024/01/16 06:01:13;;;;;;;14.32;7.05;;;;;;;0.29;100.00;100823.16;5085736;27;20035;-75
2024/01/16 06:03:39;;;;;;;19.33;6.50;;;;;;;0.36;100.00;100820.38;5074036;27;20039;-74
2024/01/16 06:06:05;;;;;;;16.42;6.28;;;;;;;0.34;100.00;100816.91;5092763;27;20032;-74
2024/01/16 06:08:30;;;;;;;18.02;6.85;;;;;;;0.37;100.00;100824.72;5087067;27;20028;-75
2024/01/16 06:10:56;;;;;;;16.38;6.47;;;;;;;0.36;100.00;100809.03;5086224;27;20358;-74
2024/01/16 06:13:22;;;;;;;19.58;5.97;;;;;;;0.29;100.00;100805.66;5065443;27;20044;-74
2024/01/16 06:15:47;;;;;;;16.10;5.43;;;;;;;0.28;100.00;100816.19;5092916;27;20070;-74
2024/01/16 06:18:13;;;;;;;17.52;6.22;;;;;;;0.24;100.00;100808.38;5085326;27;20032;-74
2024/01/16 06:20:38;;;;;;;8.15;5.03;;;;;;;0.27;100.00;100812.72;5088138;27;20041;-74
2024/01/16 06:23:04;;;;;;;23.73;6.63;;;;;;;0.31;100.00;100814.38;5077434;27;20107;-74
2024/01/16 06:25:29;;;;;;;11.90;5.40;;;;;;;0.22;100.00;100807.56;5081950;27;20041;-74
2024/01/16 06:27:55;;;;;;;22.92;7.05;;;;;;;0.33;100.00;100812.56;5098241;27;20774;-74
2024/01/16 06:30:23;;;;;;;23.90;7.13;;;;;;;0.32;100.00;100816.09;5078119;27;20480;-74
2024/01/16 06:32:49;;;;;;;16.20;7.40;;;;;;;0.36;100.00;100803.78;5084505;27;20050;-74
2024/01/16 06:35:15;;;;;;;21.17;7.53;;;;;;;0.36;100.00;100816.91;5088741;27;20024;-74
2024/01/16 06:37:41;;;;;;;25.42;9.13;;;;;;;0.32;100.00;100816.09;5068395;27;20129;-74
2024/01/16 06:40:07;;;;;;;19.80;9.05;;;;;;;0.40;100.00;100815.91;5083809;27;20054;-73
2024/01/16 06:42:33;;;;;;;24.25;10.15;;;;;;;0.36;100.00;100819.53;5053455;27;20577;-74
2024/01/16 06:44:59;;;;;;;36.55;10.82;;;;;;;0.37;100.00;100814.25;5066019;27;20205;-74
2024/01/16 06:47:24;;;;;;;28.85;11.70;;;;;;;0.37;100.00;100821.25;5094781;27;20686;-74
2024/01/16 06:49:50;;;;;;;25.80;10.25;;;;;;;0.29;100.00;100816.16;5080442;27;20036;-74
2024/01/16 06:52:15;;;;;;;28.38;10.88;;;;;;;0.33;100.00;100815.19;5082192;27;20560;-74
2024/01/16 06:54:41;;;;;;;26.13;10.90;;;;;;;0.32;100.00;100815.25;5086888;27;20043;-74
2024/01/16 06:57:06;;;;;;;28.25;10.02;;;;;;;0.28;100.00;100824.91;5096354;27;20033;-73
2024/01/16 06:59:32;;;;;;;22.73;9.57;;;;;;;0.28;100.00;100821.44;5093071;27;20425;-74
2024/01/16 07:01:57;;;;;;;21.90;9.18;;;;;;;0.28;100.00;100822.28;5091329;27;20644;-74
2024/01/16 07:04:23;;;;;;;24.48;8.80;;;;;;;0.24;100.00;100821.50;5090735;27;20453;-74
2024/01/16 07:06:49;;;;;;;25.00;8.90;;;;;;;0.33;100.00;100823.06;5094660;27;20659;-74
2024/01/16 07:09:16;;;;;;;23.20;9.43;;;;;;;0.30;100.00;100815.25;5089383;27;20032;-74
2024/01/16 07:11:42;;;;;;;17.80;8.57;;;;;;;0.30;100.00;100819.63;5053288;28;20104;-74
2024/01/16 07:14:11;;;;;;;15.85;8.38;;;;;;;0.33;100.00;100825.69;5090123;27;20047;-74
2024/01/16 07:16:37;;;;;;;26.90;9.80;;;;;;;0.40;100.00;100816.81;5085472;27;20036;-74
2024/01/16 07:19:02;;;;;;;22.25;10.05;;;;;;;0.34;100.00;100821.28;5085491;27;20056;-74
2024/01/16 07:21:28;;;;;;;28.00;10.35;;;;;;;0.37;100.00;100823.88;5070112;27;20487;-74
2024/01/16 07:23:54;;;;;;;26.67;9.70;;;;;;;0.39;100.00;100824.69;5073967;27;20042;-74
2024/01/16 07:26:20;;;;;;;21.70;9.70;;;;;;;0.38;100.00;100823.81;5098885;27;20060;-72
2024/01/16 07:28:47;;;;;;;25.63;10.52;;;;;;;0.32;100.00;100823.97;5064253;28;20036;-73
2024/01/16 07:31:13;;;;;;;26.45;11.25;;;;;;;0.31;100.00;100827.50;5070659;27;20064;-73
2024/01/16 07:33:39;;;;;;;23.73;10.38;;;;;;;0.34;100.00;100830.03;5087877;27;20038;-73
2024/01/16 07:36:06;;;;;;;28.17;11.45;;;;;;;0.40;100.00;100829.03;5070798;27;20078;-73
2024/01/16 07:38:32;;;;;;;29.95;13.05;;;;;;;0.41;100.00;100831.63;5086342;27;20044;-72
2024/01/16 07:40:58;;;;;;;29.75;12.98;;;;;;;0.45;100.00;100832.41;5068950;27;20796;-73
2024/01/16 07:43:24;;;;;;;30.98;12.98;;;;;;;0.50;100.00;100835.78;5051033;27;20039;-73
2024/01/16 07:45:50;;;;;;;24.88;12.27;;;;;;;0.52;100.00;100839.25;5067567;27;20381;-73
2024/01/16 07:48:15;;;;;;;29.45;13.20;;;;;;;0.47;100.00;100842.00;5081159;27;20040;-73
2024/01/16 07:50:41;;;;;;;35.60;12.82;;;;;;;0.51;100.00;100841.03;5079674;27;20178;-73
2024/01/16 07:53:06;;;;;;;32.08;13.88;;;;;;;0.60;100.00;100837.31;5090570;27;20040;-73
2024/01/16 07:55:32;;;;;;;28.73;14.10;;;;;;;0.60;100.00;100839.94;5072195;27;20067;-73
2024/01/16 07:57:58;;;;;;;38.38;14.70;;;;;;;0.59;100.00;100845.22;5072664;27;20028;-73
2024/01/16 08:00:23;;;;;;;33.47;14.48;;;;;;;0.63;100.00;100845.13;5076182;27;20033;-73
2024/01/16 08:02:49;;;;;;;30.70;14.18;;;;;;;2.23;100.00;100831.38;5095115;27;20020;-73
2024/01/16 08:05:15;;;;;;;38.78;16.33;;;;;;;2.63;100.00;100815.25;5052627;28;20037;-73
2024/01/16 08:07:43;;;;;;;36.92;17.15;;;;;;;2.60;100.00;100807.44;5065531;27;20097;-73
2024/01/16 08:10:09;;;;;;;37.78;17.90;;;;;;;2.75;100.00;100806.94;5072351;27;20035;-73
2024/01/16 08:12:34;;;;;;;42.65;17.42;;;;;;;2.74;100.00;100813.13;5086363;27;20603;-73
2024/01/16 08:15:00;;;;;;;42.72;18.20;;;;;;;2.69;100.00;100807.16;5071328;27;20028;-73
2024/01/16 08:17:25;;;;;;;51.75;17.95;;;;;;;2.69;100.00;100809.78;5082427;27;20044;-73
2024/01/16 08:19:51;;;;;;;35.28;17.92;;;;;;;2.71;100.00;100809.72;5086774;27;20032;-73
2024/01/16 08:22:16;;;;;;;34.25;19.30;;;;;;;2.85;100.00;100808.38;5079061;27;20040;-73
2024/01/16 08:24:42;;;;;;;29.55;18.30;;;;;;;2.56;100.00;100805.78;5062485;28;20175;-73
2024/01/16 08:27:08;;;;;;;32.20;18.88;;;;;;;2.66;100.00;100807.25;5073751;27;20035;-72
2024/01/16 08:29:33;;;;;;;40.50;18.90;;;;;;;2.88;100.00;100801.31;5069510;27;20043;-73
2024/01/16 08:31:59;;;;;;;36.38;18.70;;;;;;;2.80;100.00;100804.16;5072677;27;20758;-73
2024/01/16 08:34:24;;;;;;;35.92;18.08;;;;;;;2.67;100.00;100806.34;5080817;27;20046;-73
2024/01/16 08:36:49;;;;;;;27.25;16.48;;;;;;;2.78;100.00;100801.59;5073485;27;20032;-73
2024/01/16 08:39:16;;;;;;;37.53;15.52;;;;;;;2.70;100.00;100800.09;5066919;27;20040;-73
2024/01/16 08:41:42;;;;;;;30.15;15.65;;;;;;;2.89;100.00;100798.63;5083996;27;20672;-73
2024/01/16 08:44:07;;;;;;;32.85;16.05;;;;;;;2.56;100.00;100804.06;5084385;27;20089;-73
2024/01/16 08:46:33;;;;;;;27.58;14.95;;;;;;;2.83;100.00;100797.03;5089321;27;20044;-73
2024/01/16 08:48:58;;;;;;;36.50;15.25;;;;;;;3.18;100.00;100804.69;5095215;27;20031;-73
2024/01/16 08:51:23;;;;;;;31.38;14.55;;;;;;;2.83;100.00;100804.94;5086236;27;20023;-73
2024/01/16 08:53:49;;;;;;;35.85;14.25;;;;;;;2.96;100.00;100794.00;5091036;27;20775;-73
2024/01/16 08:56:16;;;;;;;29.25;12.98;;;;;;;2.89;100.00;100797.75;5091809;27;20035;-73
2024/01/16 08:58:42;;;;;;;27.52;13.68;;;;;;;2.93;100.00;100802.03;5069322;27;20074;-73
2024/01/16 09:01:07;;;;;;;24.98;11.95;;;;;;;3.06;100.00;100805.94;5092433;27;20035;-73
2024/01/16 09:03:34;;;;;;;39.60;12.93;;;;;;;2.93;100.00;100799.38;5088912;27;20040;-73
2024/01/16 09:06:00;;;;;;;24.45;12.07;;;;;;;2.98;100.00;100808.00;5095233;27;20930;-74
2024/01/16 09:08:28;;;;;;;31.45;13.73;;;;;;;3.08;100.00;100806.78;5093124;27;21119;-73
2024/01/16 09:10:54;;;;;;;31.52;13.43;;;;;;;2.92;100.00;100797.66;5093163;27;20088;-73
2024/01/16 09:13:20;;;;;;;22.08;11.80;;;;;;;3.04;100.00;100798.09;5080949;27;20940;-72
2024/01/16 09:15:48;;;;;;;31.70;10.98;;;;;;;3.13;100.00;100799.59;5073520;28;20032;-73
2024/01/16 09:18:13;;;;;;;25.23;11.00;;;;;;;3.00;100.00;100788.59;5094182;27;20111;-73
2024/01/16 09:20:39;;;;;;;27.00;10.35;;;;;;;2.86;100.00;100796.06;5092592;27;20035;-73
2024/01/16 09:23:04;;;;;;;23.10;9.52;;;;;;;3.06;100.00;100796.31;5088932;27;20036;-74
2024/01/16 09:25:30;;;;;;;21.65;10.35;;;;;;;3.16;100.00;100801.25;5094811;27;20044;-73
2024/01/16 09:27:55;;;;;;;21.42;9.80;;;;;;;3.20;100.00;100789.69;5095725;27;20047;-73
2024/01/16 09:30:22;;;;;;;20.00;9.98;;;;;;;3.21;100.00;100796.69;5074583;27;20105;-72
2024/01/16 09:32:48;;;;;;;22.80;9.27;;;;;;;3.28;100.00;100792.94;5090103;27;20040;-72
2024/01/16 09:35:14;;;;;;;23.85;9.55;;;;;;;3.37;100.00;100790.84;5070402;27;20143;-73
2024/01/16 09:37:40;;;;;;;20.05;9.07;;;;;;;3.46;100.00;100794.06;5093197;27;20024;-73
2024/01/16 09:40:07;;;;;;;22.05;9.20;;;;;;;3.41;100.00;100794.22;5090145;27;20047;-73
2024/01/16 09:42:32;;;;;;;18.58;8.23;;;;;;;3.52;100.00;100789.47;5089416;27;20067;-72
2024/01/16 09:45:00;;;;;;;17.00;8.80;;;;;;;3.64;100.00;100789.00;5094238;27;20032;-73
2024/01/16 09:47:26;;;;;;;17.00;7.97;;;;;;;3.70;100.00;100785.28;5094573;27;20039;-73
2024/01/16 09:49:53;;;;;;;15.35;8.60;;;;;;;3.59;100.00;100783.03;5080677;27;20040;-73
2024/01/16 09:52:19;;;;;;;17.23;7.55;;;;;;;3.30;100.00;100780.56;5089059;27;20097;-74
2024/01/16 09:54:44;;;;;;;14.77;8.05;;;;;;;3.72;100.00;100782.63;5091280;27;20047;-73
2024/01/16 09:57:12;;;;;;;29.90;8.80;;;;;;;3.81;100.00;100788.41;5088800;27;20070;-74
2024/01/16 09:59:40;;;;;;;13.50;7.15;;;;;;;3.71;100.00;100786.16;5079385;27;20028;-73
2024/01/16 10:02:09;;;;;;;12.77;7.05;;;;;;;3.77;100.00;100776.25;5090636;27;20547;-73
2024/01/16 10:04:36;;;;;;;14.00;7.13;;;;;;;3.86;100.00;100781.19;5091434;27;20046;-73
2024/01/16 10:07:02;;;;;;;18.42;6.80;;;;;;;3.87;100.00;100785.56;5074224;27;20957;-73
2024/01/16 10:09:29;;;;;;;16.60;7.18;;;;;;;3.99;100.00;100776.31;5074414;27;20132;-73
2024/01/16 10:11:55;;;;;;;15.93;5.90;;;;;;;3.67;100.00;100772.25;5093925;27;20035;-73
2024/01/16 10:14:21;;;;;;;13.30;6.40;;;;;;;3.81;100.00;100775.22;5078549;27;20085;-73
2024/01/16 10:17:05;;;;;;;18.92;5.80;;;;;;;3.59;100.00;100766.38;5086415;27;20209;-73
2024/01/16 10:19:31;;;;;;;16.27;6.28;;;;;;;3.75;100.00;100769.31;5079841;27;21016;-73
2024/01/16 10:22:01;;;;;;;12.32;6.13;;;;;;;4.16;100.00;100779.16;5070816;27;20043;-73
2024/01/16 10:24:27;;;;;;;16.05;6.65;;;;;;;2.29;100.00;100776.78;5069463;27;21003;-73
2024/01/16 10:27:03;;;;;;;18.80;6.90;;;;;;;2.08;100.00;100769.56;5092331;27;20039;-74
2024/01/16 10:29:31;;;;;;;15.95;6.70;;;;;;;2.05;100.00;100773.13;5092845;27;20040;-73
2024/01/16 10:31:57;;;;;;;21.02;6.78;;;;;;;3.48;100.00;100781.72;5091585;27;20039;-73
2024/01/16 10:34:23;;;;;;;18.25;6.70;;;;;;;4.07;100.00;100757.56;5096184;27;20555;-73
2024/01/16 10:37:00;;;;;;;16.77;7.25;;;;;;;4.10;100.00;100746.88;5095090;27;20027;-74
2024/01/16 10:39:25;;;;;;;24.08;5.75;;;;;;;3.68;100.00;100746.72;5081689;27;20056;-74
2024/01/16 10:41:55;;;;;;;19.27;7.95;;;;;;;3.74;100.00;100755.25;5091270;27;20040;-73
2024/01/16 10:44:21;;;;;;;16.55;6.30;;;;;;;3.77;100.00;100747.25;5095345;27;20035;-74
2024/01/16 10:46:46;;;;;;;19.30;6.75;;;;;;;3.41;100.00;100743.28;5072107;27;20034;-73
2024/01/16 10:49:12;;;;;;;14.52;6.32;;;;;;;3.53;100.00;100748.13;5090790;27;20040;-73
2024/01/16 10:51:39;;;;;;;19.50;5.85;;;;;;;3.47;100.00;100753.63;5094277;27;20043;-73
2024/01/16 10:54:07;;;;;;;14.75;5.97;;;;;;;3.50;100.00;100745.59;5079873;27;20147;-73
2024/01/16 10:56:33;;;;;;;15.40;5.63;;;;;;;3.49;100.00;100751.78;5089769;27;20055;-74
2024/01/16 10:59:11;;;;;;;13.73;5.88;;;;;;;3.46;100.00;100747.47;5092455;27;20040;-73
2024/01/16 11:01:38;;;;;;;14.35;5.25;;;;;;;3.52;100.00;100754.34;5098772;27;20094;-74
2024/01/16 11:04:05;;;;;;;17.95;5.95;;;;;;;3.58;100.00;100748.84;5091521;27;20133;-73
2024/01/16 11:06:33;;;;;;;10.63;5.70;;;;;;;3.88;100.00;100750.34;5092425;27;20020;-73